sensor_id;sensor_type;location;lat;lon;timestamp;pressure;altitude;pressure_sealevel;temperature;humidity
62725;BME280;49026;52.600;4.694;2023-05-11T00:02:18;101509.84;;;9.99;81.97
62725;BME280;49026;52.600;4.694;2023-05-11T00:04:43;101514.13;;;10.04;81.66
62725;BME280;49026;52.600;4.694;2023-05-11T00:07:09;101515.03;;;10.02;81.51
62725;BME280;49026;52.600;4.694;2023-05-11T00:09:34;101510.69;;;10.01;81.60
62725;BME280;49026;52.600;4.694;2023-05-11T00:12:00;101515.06;;;10.01;81.54
62725;BME280;49026;52.600;4.694;2023-05-11T00:14:27;101515.94;;;10.01;81.63
62725;BME280;49026;52.600;4.694;2023-05-11T00:16:52;101512.50;;;9.99;81.57
62725;BME280;49026;52.600;4.694;2023-05-11T00:19:17;101509.91;;;9.98;81.46
62725;BME280;49026;52.600;4.694;2023-05-11T00:21:43;101516.00;;;9.98;81.72
62725;BME280;49026;52.600;4.694;2023-05-11T00:24:08;101512.50;;;9.99;81.56
62725;BME280;49026;52.600;4.694;2023-05-11T00:26:33;101518.63;;;9.98;81.41
62725;BME280;49026;52.600;4.694;2023-05-11T00:28:58;101519.56;;;9.97;81.74
62725;BME280;49026;52.600;4.694;2023-05-11T00:31:26;101523.00;;;9.99;81.65
62725;BME280;49026;52.600;4.694;2023-05-11T00:33:52;101519.38;;;10.04;81.86
62725;BME280;49026;52.600;4.694;2023-05-11T00:36:20;101519.28;;;10.07;81.57
62725;BME280;49026;52.600;4.694;2023-05-11T00:38:45;101515.78;;;10.08;81.62
62725;BME280;49026;52.600;4.694;2023-05-11T00:41:11;101509.59;;;10.09;81.36
62725;BME280;49026;52.600;4.694;2023-05-11T00:43:36;101510.44;;;10.11;81.56
62725;BME280;49026;52.600;4.694;2023-05-11T00:46:02;101511.25;;;10.13;81.45
62725;BME280;49026;52.600;4.694;2023-05-11T00:48:30;101515.56;;;10.14;81.77
62725;BME280;49026;52.600;4.694;2023-05-11T00:50:58;101513.88;;;10.13;82.00
62725;BME280;49026;52.600;4.694;2023-05-11T00:53:24;101515.50;;;10.17;81.82
62725;BME280;49026;52.600;4.694;2023-05-11T00:55:51;101520.59;;;10.23;82.01
62725;BME280;49026;52.600;4.694;2023-05-11T00:58:17;101516.97;;;10.27;81.81
62725;BME280;49026;52.600;4.694;2023-05-11T01:00:43;101514.41;;;10.26;81.78
62725;BME280;49026;52.600;4.694;2023-05-11T01:03:09;101510.91;;;10.25;81.64
62725;BME280;49026;52.600;4.694;2023-05-11T01:05:40;101513.53;;;10.25;81.70
62725;BME280;49026;52.600;4.694;2023-05-11T01:08:17;101514.41;;;10.26;81.56
62725;BME280;49026;52.600;4.694;2023-05-11T01:10:58;101510.00;;;10.26;81.79
62725;BME280;49026;52.600;4.694;2023-05-11T01:13:36;101508.19;;;10.28;81.78
62725;BME280;49026;52.600;4.694;2023-05-11T01:16:18;101508.31;;;10.24;81.42
62725;BME280;49026;52.600;4.694;2023-05-11T01:18:51;101498.78;;;10.21;81.37
62725;BME280;49026;52.600;4.694;2023-05-11T01:21:19;101501.41;;;10.21;81.53
62725;BME280;49026;52.600;4.694;2023-05-11T01:26:51;101500.00;;;10.08;81.46
62725;BME280;49026;52.600;4.694;2023-05-11T01:29:45;101499.25;;;10.04;81.41
62725;BME280;49026;52.600;4.694;2023-05-11T01:32:21;101506.19;;;10.05;81.58
62725;BME280;49026;52.600;4.694;2023-05-11T01:34:54;101506.22;;;10.04;81.42
62725;BME280;49026;52.600;4.694;2023-05-11T01:37:25;101507.16;;;10.02;81.28
62725;BME280;49026;52.600;4.694;2023-05-11T01:39:54;101508.00;;;10.03;81.46
62725;BME280;49026;52.600;4.694;2023-05-11T01:42:25;101500.09;;;10.05;81.48
62725;BME280;49026;52.600;4.694;2023-05-11T01:44:53;101508.78;;;10.07;81.45
62725;BME280;49026;52.600;4.694;2023-05-11T01:47:22;101510.50;;;10.08;81.49
62725;BME280;49026;52.600;4.694;2023-05-11T01:49:49;101512.34;;;10.06;81.71
62725;BME280;49026;52.600;4.694;2023-05-11T01:52:15;101512.41;;;10.02;81.67
62725;BME280;49026;52.600;4.694;2023-05-11T01:54:42;101510.69;;;10.01;81.81
62725;BME280;49026;52.600;4.694;2023-05-11T01:57:13;101513.34;;;10.00;81.79
62725;BME280;49026;52.600;4.694;2023-05-11T01:59:42;101513.25;;;10.03;81.85
62725;BME280;49026;52.600;4.694;2023-05-11T02:02:09;101508.84;;;10.04;81.69
62725;BME280;49026;52.600;4.694;2023-05-11T02:04:41;101507.06;;;10.06;81.81
62725;BME280;49026;52.600;4.694;2023-05-11T02:07:10;101510.59;;;10.05;81.72
62725;BME280;49026;52.600;4.694;2023-05-11T02:09:37;101512.41;;;10.02;81.71
62725;BME280;49026;52.600;4.694;2023-05-11T02:12:04;101522.03;;;10.02;81.94
62725;BME280;49026;52.600;4.694;2023-05-11T02:14:32;101517.66;;;10.02;81.67
62725;BME280;49026;52.600;4.694;2023-05-11T02:17:00;101518.56;;;10.01;81.60
62725;BME280;49026;52.600;4.694;2023-05-11T02:19:28;101527.25;;;10.04;81.74
62725;BME280;49026;52.600;4.694;2023-05-11T02:21:54;101520.22;;;10.06;81.94
62725;BME280;49026;52.600;4.694;2023-05-11T02:24:22;101527.94;;;10.10;82.10
62725;BME280;49026;52.600;4.694;2023-05-11T02:26:51;101525.19;;;10.15;82.18
62725;BME280;49026;52.600;4.694;2023-05-11T02:29:17;101525.97;;;10.18;82.14
62725;BME280;49026;52.600;4.694;2023-05-11T02:31:45;101521.53;;;10.20;82.09
62725;BME280;49026;52.600;4.694;2023-05-11T02:34:23;101525.81;;;10.25;82.16
62725;BME280;49026;52.600;4.694;2023-05-11T02:36:53;101525.75;;;10.26;82.17
62725;BME280;49026;52.600;4.694;2023-05-11T02:39:20;101526.53;;;10.30;82.17
62725;BME280;49026;52.600;4.694;2023-05-11T02:41:51;101524.75;;;10.32;82.36
62725;BME280;49026;52.600;4.694;2023-05-11T02:44:21;101518.63;;;10.31;82.67
62725;BME280;49026;52.600;4.694;2023-05-11T02:46:51;101506.38;;;10.30;82.64
62725;BME280;49026;52.600;4.694;2023-05-11T02:49:21;101517.75;;;10.31;82.47
62725;BME280;49026;52.600;4.694;2023-05-11T02:51:55;101517.81;;;10.29;82.86
62725;BME280;49026;52.600;4.694;2023-05-11T02:54:22;101517.84;;;10.28;82.42
62725;BME280;49026;52.600;4.694;2023-05-11T02:56:49;101514.25;;;10.30;82.33
62725;BME280;49026;52.600;4.694;2023-05-11T02:59:17;101516.88;;;10.32;82.33
62725;BME280;49026;52.600;4.694;2023-05-11T03:01:44;101522.09;;;10.33;82.02
62725;BME280;49026;52.600;4.694;2023-05-11T03:04:09;101526.50;;;10.33;82.08
62725;BME280;49026;52.600;4.694;2023-05-11T03:06:35;101529.06;;;10.34;81.90
62725;BME280;49026;52.600;4.694;2023-05-11T03:09:01;101524.72;;;10.33;81.94
62725;BME280;49026;52.600;4.694;2023-05-11T03:11:27;101523.00;;;10.32;81.86
62725;BME280;49026;52.600;4.694;2023-05-11T03:13:52;101528.25;;;10.32;81.72
62725;BME280;49026;52.600;4.694;2023-05-11T03:16:21;101521.22;;;10.33;81.78
62725;BME280;49026;52.600;4.694;2023-05-11T03:18:48;101528.25;;;10.32;82.05
62725;BME280;49026;52.600;4.694;2023-05-11T03:21:14;101523.78;;;10.36;81.97
62725;BME280;49026;52.600;4.694;2023-05-11T03:23:40;101523.75;;;10.37;81.89
62725;BME280;49026;52.600;4.694;2023-05-11T03:26:06;101525.44;;;10.38;81.90
62725;BME280;49026;52.600;4.694;2023-05-11T03:28:31;101520.19;;;10.38;81.78
62725;BME280;49026;52.600;4.694;2023-05-11T03:30:58;101519.38;;;10.36;81.98
62725;BME280;49026;52.600;4.694;2023-05-11T03:33:23;101515.13;;;10.32;81.95
62725;BME280;49026;52.600;4.694;2023-05-11T03:35:50;101516.91;;;10.29;81.49
62725;BME280;49026;52.600;4.694;2023-05-11T03:38:18;101515.25;;;10.26;81.78
62725;BME280;49026;52.600;4.694;2023-05-11T03:40:45;101517.06;;;10.24;81.74
62725;BME280;49026;52.600;4.694;2023-05-11T03:43:15;101521.44;;;10.24;81.72
62725;BME280;49026;52.600;4.694;2023-05-11T03:45:44;101517.13;;;10.23;81.83
62725;BME280;49026;52.600;4.694;2023-05-11T03:48:13;101516.22;;;10.22;81.92
62725;BME280;49026;52.600;4.694;2023-05-11T03:50:40;101511.81;;;10.24;81.83
62725;BME280;49026;52.600;4.694;2023-05-11T03:53:05;101514.41;;;10.26;81.82
62725;BME280;49026;52.600;4.694;2023-05-11T03:55:33;101517.75;;;10.31;82.24
62725;BME280;49026;52.600;4.694;2023-05-11T03:57:58;101511.63;;;10.30;81.93
62725;BME280;49026;52.600;4.694;2023-05-11T04:00:24;101506.38;;;10.30;81.99
62725;BME280;49026;52.600;4.694;2023-05-11T04:02:53;101510.78;;;10.30;81.97
62725;BME280;49026;52.600;4.694;2023-05-11T04:05:18;101509.94;;;10.29;81.85
62725;BME280;49026;52.600;4.694;2023-05-11T04:07:44;101508.19;;;10.28;82.13
62725;BME280;49026;52.600;4.694;2023-05-11T04:10:10;101511.63;;;10.30;82.05
62725;BME280;49026;52.600;4.694;2023-05-11T04:12:35;101512.56;;;10.29;81.95
62725;BME280;49026;52.600;4.694;2023-05-11T04:15:01;101509.94;;;10.29;81.92
62725;BME280;49026;52.600;4.694;2023-05-11T04:17:26;101514.34;;;10.27;81.98
62725;BME280;49026;52.600;4.694;2023-05-11T04:19:52;101515.19;;;10.29;82.25
62725;BME280;49026;52.600;4.694;2023-05-11T04:22:21;101508.09;;;10.31;82.22
62725;BME280;49026;52.600;4.694;2023-05-11T04:24:47;101512.50;;;10.32;81.85
62725;BME280;49026;52.600;4.694;2023-05-11T04:27:12;101509.88;;;10.32;82.11
62725;BME280;49026;52.600;4.694;2023-05-11T04:29:40;101515.13;;;10.32;82.13
62725;BME280;49026;52.600;4.694;2023-05-11T04:32:05;101510.72;;;10.31;82.16
62725;BME280;49026;52.600;4.694;2023-05-11T04:34:30;101514.25;;;10.30;82.10
62725;BME280;49026;52.600;4.694;2023-05-11T04:36:58;101508.09;;;10.31;82.17
62725;BME280;49026;52.600;4.694;2023-05-11T04:39:24;101509.00;;;10.32;82.39
62725;BME280;49026;52.600;4.694;2023-05-11T04:41:50;101504.63;;;10.32;82.49
62725;BME280;49026;52.600;4.694;2023-05-11T04:44:15;101508.09;;;10.33;82.42
62725;BME280;49026;52.600;4.694;2023-05-11T04:46:40;101510.69;;;10.34;82.41
62725;BME280;49026;52.600;4.694;2023-05-11T04:49:08;101515.91;;;10.36;82.42
62725;BME280;49026;52.600;4.694;2023-05-11T04:51:35;101521.91;;;10.40;82.46
62725;BME280;49026;52.600;4.694;2023-05-11T04:54:05;101528.78;;;10.44;82.74
62725;BME280;49026;52.600;4.694;2023-05-11T04:56:30;101530.44;;;10.48;82.54
62725;BME280;49026;52.600;4.694;2023-05-11T04:58:56;101531.97;;;10.55;82.91
62725;BME280;49026;52.600;4.694;2023-05-11T05:01:21;101531.78;;;10.63;83.16
62725;BME280;49026;52.600;4.694;2023-05-11T05:03:47;101527.16;;;10.71;82.98
62725;BME280;49026;52.600;4.694;2023-05-11T05:06:13;101534.88;;;10.75;82.78
62725;BME280;49026;52.600;4.694;2023-05-11T05:08:38;101532.97;;;10.81;82.96
62725;BME280;49026;52.600;4.694;2023-05-11T05:11:06;101543.31;;;10.87;83.14
62725;BME280;49026;52.600;4.694;2023-05-11T05:13:31;101539.69;;;10.91;83.39
62725;BME280;49026;52.600;4.694;2023-05-11T05:15:56;101550.09;;;10.94;83.22
62725;BME280;49026;52.600;4.694;2023-05-11T05:18:22;101548.09;;;11.02;83.05
62725;BME280;49026;52.600;4.694;2023-05-11T05:20:47;101546.19;;;11.07;82.91
62725;BME280;49026;52.600;4.694;2023-05-11T05:23:15;101559.19;;;11.12;83.02
62725;BME280;49026;52.600;4.694;2023-05-11T05:25:40;101553.00;;;11.15;82.69
62725;BME280;49026;52.600;4.694;2023-05-11T05:28:05;101550.31;;;11.16;83.17
62725;BME280;49026;52.600;4.694;2023-05-11T05:30:34;101553.75;;;11.18;82.97
62725;BME280;49026;52.600;4.694;2023-05-11T05:33:01;101552.78;;;11.21;82.88
62725;BME280;49026;52.600;4.694;2023-05-11T05:35:26;101563.13;;;11.27;83.31
62725;BME280;49026;52.600;4.694;2023-05-11T05:37:51;101564.69;;;11.32;82.96
62725;BME280;49026;52.600;4.694;2023-05-11T05:40:17;101561.88;;;11.39;83.24
62725;BME280;49026;52.600;4.694;2023-05-11T05:42:42;101565.31;;;11.41;83.25
62725;BME280;49026;52.600;4.694;2023-05-11T05:45:08;101567.72;;;11.48;83.20
62725;BME280;49026;52.600;4.694;2023-05-11T05:47:36;101566.41;;;11.62;83.48
62725;BME280;49026;52.600;4.694;2023-05-11T05:50:01;101564.94;;;11.80;83.39
62725;BME280;49026;52.600;4.694;2023-05-11T05:52:26;101562.41;;;12.03;83.45
62725;BME280;49026;52.600;4.694;2023-05-11T05:54:52;101564.38;;;12.47;83.79
62725;BME280;49026;52.600;4.694;2023-05-11T05:57:17;101566.31;;;12.89;83.38
62725;BME280;49026;52.600;4.694;2023-05-11T05:59:44;101568.63;;;13.21;83.07
62725;BME280;49026;52.600;4.694;2023-05-11T06:02:10;101574.41;;;13.52;83.12
62725;BME280;49026;52.600;4.694;2023-05-11T06:04:37;101576.91;;;13.78;83.30
62725;BME280;49026;52.600;4.694;2023-05-11T06:07:03;101573.09;;;14.05;83.59
62725;BME280;49026;52.600;4.694;2023-05-11T06:09:28;101570.56;;;14.23;83.76
62725;BME280;49026;52.600;4.694;2023-05-11T06:11:53;101572.63;;;14.37;83.81
62725;BME280;49026;52.600;4.694;2023-05-11T06:14:19;101585.88;;;14.56;84.60
62725;BME280;49026;52.600;4.694;2023-05-11T06:16:46;101591.19;;;14.75;84.34
62725;BME280;49026;52.600;4.694;2023-05-11T06:19:11;101594.50;;;14.80;84.38
62725;BME280;49026;52.600;4.694;2023-05-11T06:21:37;101595.44;;;14.79;83.55
62725;BME280;49026;52.600;4.694;2023-05-11T06:24:03;101590.50;;;14.71;83.89
62725;BME280;49026;52.600;4.694;2023-05-11T06:26:29;101592.50;;;14.66;83.55
62725;BME280;49026;52.600;4.694;2023-05-11T06:28:54;101592.63;;;14.63;83.62
62725;BME280;49026;52.600;4.694;2023-05-11T06:31:22;101602.03;;;14.70;83.61
62725;BME280;49026;52.600;4.694;2023-05-11T06:33:50;101600.03;;;14.94;84.13
62725;BME280;49026;52.600;4.694;2023-05-11T06:36:18;101596.13;;;15.40;83.84
62725;BME280;49026;52.600;4.694;2023-05-11T06:38:43;101595.28;;;15.76;84.90
62725;BME280;49026;52.600;4.694;2023-05-11T06:41:11;101586.09;;;16.18;84.84
62725;BME280;49026;52.600;4.694;2023-05-11T06:43:37;101584.63;;;16.45;84.46
62725;BME280;49026;52.600;4.694;2023-05-11T06:46:02;101584.19;;;16.71;85.96
62725;BME280;49026;52.600;4.694;2023-05-11T06:48:30;101585.78;;;16.91;86.60
62725;BME280;49026;52.600;4.694;2023-05-11T06:50:56;101576.09;;;17.06;86.23
62725;BME280;49026;52.600;4.694;2023-05-11T06:53:21;101594.78;;;17.20;85.76
62725;BME280;49026;52.600;4.694;2023-05-11T06:55:49;101601.88;;;17.35;86.40
62725;BME280;49026;52.600;4.694;2023-05-11T06:58:14;101602.97;;;17.63;86.83
62725;BME280;49026;52.600;4.694;2023-05-11T07:00:41;101610.88;;;17.79;85.99
62725;BME280;49026;52.600;4.694;2023-05-11T07:03:06;101611.94;;;17.76;86.27
62725;BME280;49026;52.600;4.694;2023-05-11T07:05:31;101610.78;;;17.66;85.06
62725;BME280;49026;52.600;4.694;2023-05-11T07:07:57;101607.34;;;17.48;85.58
62725;BME280;49026;52.600;4.694;2023-05-11T07:10:24;101608.47;;;17.28;84.04
62725;BME280;49026;52.600;4.694;2023-05-11T07:12:50;101610.44;;;16.93;83.63
62725;BME280;49026;52.600;4.694;2023-05-11T07:15:15;101603.25;;;16.61;83.80
62725;BME280;49026;52.600;4.694;2023-05-11T07:17:40;101613.19;;;16.40;84.40
62725;BME280;49026;52.600;4.694;2023-05-11T07:20:06;101606.66;;;16.30;84.49
62725;BME280;49026;52.600;4.694;2023-05-11T07:22:32;101609.91;;;16.35;84.79
62725;BME280;49026;52.600;4.694;2023-05-11T07:24:59;101601.56;;;16.43;83.60
62725;BME280;49026;52.600;4.694;2023-05-11T07:27:24;101600.66;;;16.44;83.31
62725;BME280;49026;52.600;4.694;2023-05-11T07:29:50;101599.84;;;16.42;81.36
62725;BME280;49026;52.600;4.694;2023-05-11T07:32:18;101592.50;;;16.47;82.20
62725;BME280;49026;52.600;4.694;2023-05-11T07:34:43;101595.00;;;16.50;82.33
62725;BME280;49026;52.600;4.694;2023-05-11T07:37:11;101607.03;;;16.40;82.06
62725;BME280;49026;52.600;4.694;2023-05-11T07:39:36;101611.72;;;16.35;82.74
62725;BME280;49026;52.600;4.694;2023-05-11T07:42:04;101603.91;;;16.32;82.70
62725;BME280;49026;52.600;4.694;2023-05-11T07:44:29;101595.66;;;16.38;82.90
62725;BME280;49026;52.600;4.694;2023-05-11T07:46:55;101601.06;;;16.52;83.12
62725;BME280;49026;52.600;4.694;2023-05-11T07:49:24;101598.31;;;16.71;81.76
62725;BME280;49026;52.600;4.694;2023-05-11T07:51:52;101601.31;;;16.81;82.12
62725;BME280;49026;52.600;4.694;2023-05-11T07:54:17;101604.78;;;16.99;82.17
62725;BME280;49026;52.600;4.694;2023-05-11T07:56:42;101607.88;;;17.23;83.52
62725;BME280;49026;52.600;4.694;2023-05-11T07:59:08;101609.09;;;17.33;84.25
62725;BME280;49026;52.600;4.694;2023-05-11T08:01:35;101615.41;;;17.47;84.52
62725;BME280;49026;52.600;4.694;2023-05-11T08:04:01;101620.00;;;17.59;83.90
62725;BME280;49026;52.600;4.694;2023-05-11T08:06:27;101615.19;;;17.66;83.13
62725;BME280;49026;52.600;4.694;2023-05-11T08:08:52;101619.88;;;17.92;83.29
62725;BME280;49026;52.600;4.694;2023-05-11T08:11:21;101622.25;;;18.13;82.80
62725;BME280;49026;52.600;4.694;2023-05-11T08:13:46;101618.75;;;18.27;83.66
62725;BME280;49026;52.600;4.694;2023-05-11T08:16:11;101626.22;;;18.65;84.83
62725;BME280;49026;52.600;4.694;2023-05-11T08:18:36;101626.72;;;19.28;84.78
62725;BME280;49026;52.600;4.694;2023-05-11T08:21:02;101627.16;;;19.76;85.04
62725;BME280;49026;52.600;4.694;2023-05-11T08:23:27;101626.81;;;19.95;78.92
62725;BME280;49026;52.600;4.694;2023-05-11T08:25:54;101625.00;;;19.68;78.40
62725;BME280;49026;52.600;4.694;2023-05-11T08:28:20;101627.03;;;19.23;75.48
62725;BME280;49026;52.600;4.694;2023-05-11T08:30:52;101628.09;;;19.20;78.91
62725;BME280;49026;52.600;4.694;2023-05-11T08:33:18;101622.09;;;19.17;78.50
62725;BME280;49026;52.600;4.694;2023-05-11T08:35:43;101630.69;;;18.93;78.94
62725;BME280;49026;52.600;4.694;2023-05-11T08:38:09;101626.00;;;18.82;78.53
62725;BME280;49026;52.600;4.694;2023-05-11T08:40:34;101625.75;;;18.87;76.59
62725;BME280;49026;52.600;4.694;2023-05-11T08:43:03;101621.50;;;18.84;77.04
62725;BME280;49026;52.600;4.694;2023-05-11T08:45:30;101625.53;;;18.76;74.80
62725;BME280;49026;52.600;4.694;2023-05-11T08:47:57;101626.78;;;18.70;75.39
62725;BME280;49026;52.600;4.694;2023-05-11T08:50:23;101632.66;;;18.75;78.00
62725;BME280;49026;52.600;4.694;2023-05-11T08:52:48;101632.47;;;18.78;76.01
62725;BME280;49026;52.600;4.694;2023-05-11T08:55:14;101636.50;;;18.85;76.96
62725;BME280;49026;52.600;4.694;2023-05-11T08:57:43;101635.38;;;18.90;76.38
62725;BME280;49026;52.600;4.694;2023-05-11T09:00:13;101635.34;;;18.75;76.34
62725;BME280;49026;52.600;4.694;2023-05-11T09:02:39;101640.72;;;18.59;77.20
62725;BME280;49026;52.600;4.694;2023-05-11T09:05:05;101637.22;;;18.59;78.31
62725;BME280;49026;52.600;4.694;2023-05-11T09:07:32;101634.09;;;18.66;77.49
62725;BME280;49026;52.600;4.694;2023-05-11T09:10:00;101640.84;;;18.72;78.12
62725;BME280;49026;52.600;4.694;2023-05-11T09:12:28;101641.03;;;18.69;73.41
62725;BME280;49026;52.600;4.694;2023-05-11T09:14:53;101646.34;;;18.69;75.97
62725;BME280;49026;52.600;4.694;2023-05-11T09:17:21;101640.56;;;18.77;77.51
62725;BME280;49026;52.600;4.694;2023-05-11T09:20:04;101642.66;;;19.00;75.18
62725;BME280;49026;52.600;4.694;2023-05-11T09:22:43;101638.91;;;19.32;71.86
62725;BME280;49026;52.600;4.694;2023-05-11T09:25:14;101644.78;;;19.78;75.42
62725;BME280;49026;52.600;4.694;2023-05-11T09:27:44;101642.56;;;20.38;79.21
62725;BME280;49026;52.600;4.694;2023-05-11T09:30:14;101636.88;;;20.94;80.89
62725;BME280;49026;52.600;4.694;2023-05-11T09:32:58;101633.59;;;20.78;80.78
62725;BME280;49026;52.600;4.694;2023-05-11T09:35:29;101634.03;;;20.59;81.08
62725;BME280;49026;52.600;4.694;2023-05-11T09:40:25;101642.13;;;19.64;80.27
62725;BME280;49026;52.600;4.694;2023-05-11T09:42:51;101648.59;;;19.33;79.07
62725;BME280;49026;52.600;4.694;2023-05-11T09:45:36;101639.72;;;19.05;77.84
62725;BME280;49026;52.600;4.694;2023-05-11T09:48:03;101646.88;;;19.04;78.61
62725;BME280;49026;52.600;4.694;2023-05-11T09:50:33;101638.03;;;18.90;76.93
62725;BME280;49026;52.600;4.694;2023-05-11T09:52:59;101645.22;;;18.73;77.46
62725;BME280;49026;52.600;4.694;2023-05-11T09:55:24;101646.97;;;18.88;78.32
62725;BME280;49026;52.600;4.694;2023-05-11T09:57:55;101651.03;;;19.09;78.05
62725;BME280;49026;52.600;4.694;2023-05-11T10:00:21;101649.06;;;18.98;76.10
62725;BME280;49026;52.600;4.694;2023-05-11T10:03:05;101644.50;;;18.85;75.52
62725;BME280;49026;52.600;4.694;2023-05-11T10:05:35;101649.06;;;18.98;76.31
62725;BME280;49026;52.600;4.694;2023-05-11T10:08:04;101653.22;;;19.16;72.30
62725;BME280;49026;52.600;4.694;2023-05-11T10:10:31;101653.28;;;19.29;76.32
62725;BME280;49026;52.600;4.694;2023-05-11T10:12:59;101649.47;;;19.75;78.19
62725;BME280;49026;52.600;4.694;2023-05-11T10:15:28;101639.06;;;19.97;77.62
62725;BME280;49026;52.600;4.694;2023-05-11T10:17:55;101651.66;;;19.95;77.67
62725;BME280;49026;52.600;4.694;2023-05-11T10:20:29;101643.16;;;20.16;78.58
62725;BME280;49026;52.600;4.694;2023-05-11T10:22:55;101636.97;;;20.15;78.03
62725;BME280;49026;52.600;4.694;2023-05-11T10:25:24;101629.81;;;20.16;77.92
62725;BME280;49026;52.600;4.694;2023-05-11T10:27:52;101633.66;;;20.12;78.01
62725;BME280;49026;52.600;4.694;2023-05-11T10:30:19;101637.81;;;20.16;77.45
62725;BME280;49026;52.600;4.694;2023-05-11T10:32:45;101639.13;;;20.23;78.42
62725;BME280;49026;52.600;4.694;2023-05-11T10:35:15;101636.41;;;20.63;78.07
62725;BME280;49026;52.600;4.694;2023-05-11T10:37:40;101641.50;;;20.66;77.11
62725;BME280;49026;52.600;4.694;2023-05-11T10:40:12;101636.25;;;20.52;76.11
62725;BME280;49026;52.600;4.694;2023-05-11T10:45:59;101643.66;;;19.95;72.56
62725;BME280;49026;52.600;4.694;2023-05-11T10:48:51;101639.53;;;19.08;72.28
62725;BME280;49026;52.600;4.694;2023-05-11T10:51:47;101641.81;;;18.71;72.67
62725;BME280;49026;52.600;4.694;2023-05-11T10:54:28;101650.84;;;18.24;72.05
62725;BME280;49026;52.600;4.694;2023-05-11T10:57:29;101663.78;;;17.37;68.96
62725;BME280;49026;52.600;4.694;2023-05-11T11:03:17;101665.34;;;14.94;72.44
62725;BME280;49026;52.600;4.694;2023-05-11T11:05:42;101657.16;;;14.38;73.48
62725;BME280;49026;52.600;4.694;2023-05-11T11:08:09;101662.41;;;13.97;74.35
62725;BME280;49026;52.600;4.694;2023-05-11T11:10:36;101669.53;;;13.73;74.97
62725;BME280;49026;52.600;4.694;2023-05-11T11:13:04;101659.59;;;13.58;75.04
62725;BME280;49026;52.600;4.694;2023-05-11T11:18:28;101661.59;;;13.27;75.32
62725;BME280;49026;52.600;4.694;2023-05-11T11:20:55;101662.59;;;13.25;75.74
62725;BME280;49026;52.600;4.694;2023-05-11T11:26:09;101666.44;;;13.40;75.49
62725;BME280;49026;52.600;4.694;2023-05-11T11:33:50;101667.47;;;13.12;75.51
62725;BME280;49026;52.600;4.694;2023-05-11T11:36:15;101666.69;;;13.10;75.94
62725;BME280;49026;52.600;4.694;2023-05-11T11:38:57;101668.94;;;13.19;76.16
62725;BME280;49026;52.600;4.694;2023-05-11T11:41:31;101670.31;;;13.29;76.23
62725;BME280;49026;52.600;4.694;2023-05-11T11:43:58;101662.53;;;13.50;76.65
62725;BME280;49026;52.600;4.694;2023-05-11T11:46:28;101665.25;;;13.70;76.39
62725;BME280;49026;52.600;4.694;2023-05-11T11:49:08;101661.53;;;13.75;76.10
62725;BME280;49026;52.600;4.694;2023-05-11T11:51:34;101661.38;;;13.79;76.08
62725;BME280;49026;52.600;4.694;2023-05-11T11:54:05;101666.47;;;13.84;76.55
62725;BME280;49026;52.600;4.694;2023-05-11T11:59:01;101664.88;;;14.02;76.54
62725;BME280;49026;52.600;4.694;2023-05-11T12:01:35;101660.56;;;13.99;76.63
62725;BME280;49026;52.600;4.694;2023-05-11T12:06:37;101665.97;;;13.74;77.12
62725;BME280;49026;52.600;4.694;2023-05-11T12:09:03;101670.34;;;13.75;76.82
62725;BME280;49026;52.600;4.694;2023-05-11T12:11:29;101659.44;;;13.83;76.94
62725;BME280;49026;52.600;4.694;2023-05-11T12:13:56;101665.72;;;14.02;77.29
62725;BME280;49026;52.600;4.694;2023-05-11T12:16:21;101664.34;;;14.35;77.18
62725;BME280;49026;52.600;4.694;2023-05-11T12:18:55;101667.75;;;14.59;76.72
62725;BME280;49026;52.600;4.694;2023-05-11T12:21:29;101668.00;;;14.73;77.21
62725;BME280;49026;52.600;4.694;2023-05-11T12:24:03;101670.09;;;14.86;76.85
62725;BME280;49026;52.600;4.694;2023-05-11T12:26:34;101671.72;;;14.69;76.96
62725;BME280;49026;52.600;4.694;2023-05-11T12:29:09;101673.84;;;14.61;77.76
62725;BME280;49026;52.600;4.694;2023-05-11T12:31:41;101674.75;;;14.60;77.65
62725;BME280;49026;52.600;4.694;2023-05-11T12:34:13;101675.13;;;14.51;77.37
62725;BME280;49026;52.600;4.694;2023-05-11T12:36:39;101671.03;;;14.43;77.71
62725;BME280;49026;52.600;4.694;2023-05-11T12:39:04;101669.56;;;14.36;78.18
62725;BME280;49026;52.600;4.694;2023-05-11T12:41:30;101664.28;;;14.36;78.52
62725;BME280;49026;52.600;4.694;2023-05-11T12:43:56;101667.44;;;14.44;79.00
62725;BME280;49026;52.600;4.694;2023-05-11T12:46:24;101671.63;;;14.50;78.83
62725;BME280;49026;52.600;4.694;2023-05-11T12:48:50;101668.94;;;14.52;78.87
62725;BME280;49026;52.600;4.694;2023-05-11T12:54:08;101663.13;;;14.64;79.00
62725;BME280;49026;52.600;4.694;2023-05-11T12:56:47;101666.13;;;14.55;78.79
62725;BME280;49026;52.600;4.694;2023-05-11T12:59:35;101664.56;;;14.51;79.42
62725;BME280;49026;52.600;4.694;2023-05-11T13:04:32;101657.84;;;14.64;79.52
62725;BME280;49026;52.600;4.694;2023-05-11T13:06:58;101657.56;;;14.70;79.07
62725;BME280;49026;52.600;4.694;2023-05-11T13:09:24;101663.91;;;14.66;78.78
62725;BME280;49026;52.600;4.694;2023-05-11T13:14:34;101663.97;;;14.64;78.21
62725;BME280;49026;52.600;4.694;2023-05-11T13:16:59;101668.63;;;14.58;77.95
62725;BME280;49026;52.600;4.694;2023-05-11T13:19:28;101658.34;;;14.52;77.66
62725;BME280;49026;52.600;4.694;2023-05-11T13:21:56;101654.28;;;14.43;77.69
62725;BME280;49026;52.600;4.694;2023-05-11T13:24:22;101652.59;;;14.42;77.90
62725;BME280;49026;52.600;4.694;2023-05-11T13:26:48;101658.66;;;14.44;78.05
62725;BME280;49026;52.600;4.694;2023-05-11T13:29:14;101654.03;;;14.49;77.87
62725;BME280;49026;52.600;4.694;2023-05-11T13:34:08;101655.03;;;14.46;77.98